Web Počasí Slunečno.cz™ (Podmínky, ePrivacy) používá cookies a personalizace pro reklamní účely. Pohybem po stránce vyjadřujete souhlas. Odejít

Aktuální počasí v Česku a ve světě - METAR

Seznam meteostanic umístěných nejčasteji na letišti v ČR a ve světě

Vyhledat místa podle abecedy:
A B C D E F G H I J K L M N O P Q R S T U V W X Y Z

Filtrovat:

ID stanice:
a/nebo
Název místa (fulltext):
 
Místo (ID)Naposledy načteno 
Odense (EKOD) 05.12.2021 13:50 UTC Zobrazit METAR
EKOD 051350Z 06017KT 9999 FEW020 SCT050 BKN065 02/M00 Q1011
Odesa (UKOO) 01.02.2018 08:00 UTC Zobrazit METAR
UKOO 010800Z CAVOK 07/04 Q1018 R16/190056 NOSIG
Osijek (LDOS) 05.12.2021 19:00 UTC Zobrazit METAR
LDOS 051900Z 33005KT 2000 BR SCT007 OVC027 04/04 Q1003
Oslo (ENGM) 05.12.2021 18:50 UTC Zobrazit METAR
ENGM 051850Z 02004KT 9999 FEW023 BKN034 M12/M14 Q1023 NOSIG
Ostend (EBOS) 05.12.2021 18:50 UTC Zobrazit METAR
EBOS 051850Z 03006KT 9999 FEW020 BKN028 05/03 Q1007 NOSIG
Ostrava (LKMT) 05.12.2021 19:00 UTC Zobrazit METAR
LKMT 051900Z 24003KT 6000 OVC025 01/01 Q1006 NOSIG
Ottawa (CYOW) 05.12.2021 19:00 UTC Zobrazit METAR
CYOW 051900Z 10006KT 15SM FEW020 BKN180 OVC220 M03/M08 A3035 RMK CU1AC5CI2 SLP288
Ouagadougou (DFFD) 05.12.2021 19:00 UTC Zobrazit METAR
DFFD 051900Z 03002KT 8000 NSC 28/03 Q1012 NOSIG
Oulu (EFOU) 05.12.2021 14:50 UTC Zobrazit METAR
EFOU 051450Z AUTO VRB01KT CAVOK M25/M27 Q1030
Reklama

Reklama


Newslettter

Počasí na Váš email

Každý den Vám pošleme předpověď
Emaily chodí ráno a bez reklamy



Odhlásit newsletter

Reklama